createdAt,value
2023-05-05T00:00:05.091Z,8.60
2023-05-05T00:01:05.110Z,9.40
2023-05-05T00:02:05.065Z,9.00
2023-05-05T00:03:05.145Z,8.70
2023-05-05T00:04:05.074Z,8.30
2023-05-05T00:05:04.999Z,8.70
2023-05-05T00:06:04.990Z,8.50
2023-05-05T00:07:05.008Z,8.10
2023-05-05T00:08:04.985Z,8.60
2023-05-05T00:09:04.942Z,8.30
2023-05-05T00:10:04.948Z,8.60
2023-05-05T00:11:04.920Z,8.20
2023-05-05T00:12:04.912Z,8.50
2023-05-05T00:13:04.949Z,8.70
2023-05-05T00:14:04.879Z,7.80
2023-05-05T00:15:04.891Z,8.20
2023-05-05T00:16:04.859Z,8.20
2023-05-05T00:17:04.859Z,8.70
2023-05-05T00:18:04.854Z,8.40
2023-05-05T00:19:04.813Z,8.70
2023-05-05T00:20:04.915Z,8.40
2023-05-05T00:21:04.806Z,8.80
2023-05-05T00:22:04.770Z,7.90
2023-05-05T00:23:04.764Z,8.50
2023-05-05T00:24:04.753Z,8.00
2023-05-05T00:25:04.770Z,8.20
2023-05-05T00:26:04.718Z,8.20
2023-05-05T00:27:04.711Z,8.50
2023-05-05T00:28:04.697Z,8.00
2023-05-05T00:29:04.720Z,7.40
2023-05-05T00:30:04.860Z,7.90
2023-05-05T00:31:04.694Z,7.40
2023-05-05T00:32:04.645Z,7.60
2023-05-05T00:33:04.756Z,7.40
2023-05-05T00:34:04.646Z,7.80
2023-05-05T00:35:04.608Z,7.70
2023-05-05T00:36:04.582Z,7.70
2023-05-05T00:37:04.572Z,7.70
2023-05-05T00:38:04.555Z,7.10
2023-05-05T00:39:04.564Z,7.60
2023-05-05T00:40:04.622Z,7.40
2023-05-05T00:41:04.509Z,8.30
2023-05-05T00:42:04.516Z,7.40
2023-05-05T00:43:04.506Z,7.60
2023-05-05T00:44:04.506Z,7.90
2023-05-05T00:45:04.483Z,7.50
2023-05-05T00:46:04.480Z,8.10
2023-05-05T00:47:04.472Z,7.30
2023-05-05T00:48:04.496Z,7.60
2023-05-05T00:49:04.487Z,7.50
2023-05-05T00:50:04.504Z,7.80
2023-05-05T00:51:04.475Z,7.80
2023-05-05T00:52:04.423Z,7.70
2023-05-05T00:53:04.386Z,7.60
2023-05-05T00:54:04.355Z,7.60
2023-05-05T00:55:04.360Z,7.50
2023-05-05T00:56:04.354Z,8.10
2023-05-05T00:57:04.335Z,7.80
2023-05-05T00:58:04.455Z,7.90
2023-05-05T00:59:04.288Z,7.50
2023-05-05T01:00:04.292Z,7.70
2023-05-05T01:01:04.307Z,7.50
2023-05-05T01:02:04.385Z,7.50
2023-05-05T01:03:04.298Z,7.80
2023-05-05T01:04:04.237Z,7.50
2023-05-05T01:05:04.246Z,7.50
2023-05-05T01:06:04.215Z,7.20
2023-05-05T01:07:04.180Z,7.70
2023-05-05T01:08:04.191Z,7.30
2023-05-05T01:09:04.156Z,7.40
2023-05-05T01:10:17.966Z,7.30
2023-05-05T01:11:04.123Z,7.20
2023-05-05T01:12:04.108Z,7.30
2023-05-05T01:13:04.221Z,7.40
2023-05-05T01:14:04.071Z,7.30
2023-05-05T01:15:04.063Z,7.50
2023-05-05T01:16:04.067Z,7.70
2023-05-05T01:17:04.055Z,7.10
2023-05-05T01:18:04.074Z,7.00
2023-05-05T01:19:04.016Z,7.30
2023-05-05T01:20:03.994Z,7.40
2023-05-05T01:21:04.000Z,7.50
2023-05-05T01:22:03.983Z,7.30
2023-05-05T01:23:04.034Z,7.30
2023-05-05T01:24:03.949Z,5.70
2023-05-05T01:25:03.962Z,6.00
2023-05-05T01:26:03.947Z,6.60
2023-05-05T01:27:03.903Z,6.50
2023-05-05T01:28:03.896Z,7.10
2023-05-05T01:29:03.900Z,6.80
2023-05-05T01:30:03.882Z,6.90
2023-05-05T01:31:03.917Z,6.90
2023-05-05T01:32:03.890Z,6.80
2023-05-05T01:33:03.846Z,7.10
2023-05-05T01:34:03.856Z,6.60
2023-05-05T01:35:03.828Z,7.00
2023-05-05T01:36:03.797Z,7.10
2023-05-05T01:37:03.792Z,6.70
2023-05-05T01:38:03.742Z,6.90
2023-05-05T01:39:03.760Z,6.20
2023-05-05T01:40:03.747Z,6.60
2023-05-05T01:41:03.743Z,6.80
2023-05-05T01:42:03.701Z,7.10
2023-05-05T01:43:03.690Z,7.40
2023-05-05T01:44:03.697Z,7.20
2023-05-05T01:45:03.693Z,7.20
2023-05-05T01:46:03.658Z,7.40
2023-05-05T01:47:03.638Z,7.50
2023-05-05T01:48:03.749Z,7.20
2023-05-05T01:49:03.589Z,7.30
2023-05-05T01:50:03.594Z,7.20
2023-05-05T01:51:03.574Z,7.30
2023-05-05T01:52:03.592Z,6.60
2023-05-05T01:53:03.552Z,7.20
2023-05-05T01:54:03.528Z,5.90
2023-05-05T01:55:03.524Z,6.10
2023-05-05T01:56:03.573Z,5.60
2023-05-05T01:57:03.495Z,5.10
2023-05-05T01:58:03.478Z,6.00
2023-05-05T01:59:03.482Z,5.70
2023-05-05T02:00:03.470Z,6.60
2023-05-05T02:01:03.486Z,6.30
2023-05-05T02:02:03.633Z,6.10
2023-05-05T02:03:03.508Z,6.50
2023-05-05T02:04:03.457Z,5.40
2023-05-05T02:05:03.405Z,5.60
2023-05-05T02:06:03.426Z,5.20
2023-05-05T02:07:03.383Z,4.90
2023-05-05T02:08:03.353Z,5.40
2023-05-05T02:09:03.332Z,5.60
2023-05-05T02:10:03.310Z,5.70
2023-05-05T02:11:03.314Z,5.60
2023-05-05T02:12:33.784Z,6.40
2023-05-05T02:13:03.339Z,5.50
2023-05-05T02:14:03.324Z,5.60
2023-05-05T02:15:03.298Z,5.80
2023-05-05T02:16:03.295Z,5.60
2023-05-05T02:17:03.295Z,5.00
2023-05-05T02:18:03.281Z,5.30
2023-05-05T02:19:03.222Z,5.90
2023-05-05T02:20:03.253Z,5.70
2023-05-05T02:21:03.172Z,5.30
2023-05-05T02:22:03.154Z,4.90
2023-05-05T02:23:03.181Z,4.80
2023-05-05T02:24:03.140Z,5.10
2023-05-05T02:25:03.129Z,5.40
2023-05-05T02:26:03.137Z,5.60
2023-05-05T02:27:03.110Z,5.20
2023-05-05T02:28:03.071Z,5.00
2023-05-05T02:29:03.073Z,5.00
2023-05-05T02:30:03.087Z,5.20
2023-05-05T02:31:03.075Z,5.10
2023-05-05T02:32:03.041Z,5.20
2023-05-05T02:33:03.084Z,5.50
2023-05-05T02:34:03.030Z,5.40
2023-05-05T02:35:02.997Z,5.20
2023-05-05T02:36:02.976Z,5.00
2023-05-05T02:37:02.957Z,4.80
2023-05-05T02:38:02.987Z,5.10
2023-05-05T02:39:02.963Z,4.80
2023-05-05T02:40:02.947Z,5.00
2023-05-05T02:41:02.925Z,5.40
2023-05-05T02:42:02.940Z,5.80
2023-05-05T02:43:02.893Z,5.60
2023-05-05T02:44:02.880Z,5.00
2023-05-05T02:45:02.880Z,5.60
2023-05-05T02:46:02.933Z,5.30
2023-05-05T02:47:02.835Z,5.60
2023-05-05T02:48:02.884Z,5.70
2023-05-05T02:49:02.800Z,6.20
2023-05-05T02:50:02.818Z,5.60
2023-05-05T02:51:02.761Z,6.00
2023-05-05T02:52:02.770Z,6.20
2023-05-05T02:53:02.748Z,6.10
2023-05-05T02:54:02.840Z,6.30
2023-05-05T02:55:02.741Z,5.70
2023-05-05T02:56:02.752Z,6.10
2023-05-05T02:57:02.696Z,5.60
2023-05-05T02:58:02.692Z,6.10
2023-05-05T02:59:02.679Z,6.00
2023-05-05T03:00:02.672Z,6.00
2023-05-05T03:01:02.639Z,5.80
2023-05-05T03:02:02.621Z,6.00
2023-05-05T03:03:02.728Z,6.20
2023-05-05T03:04:02.645Z,6.00
2023-05-05T03:05:02.689Z,6.60
2023-05-05T03:06:02.612Z,6.70
2023-05-05T03:07:02.562Z,6.40
2023-05-05T03:08:02.660Z,6.20
2023-05-05T03:09:02.559Z,5.80
2023-05-05T03:10:02.516Z,6.70
2023-05-05T03:11:02.516Z,6.10
2023-05-05T03:12:02.511Z,6.60
2023-05-05T03:13:02.508Z,5.90
2023-05-05T03:14:02.496Z,6.00
2023-05-05T03:15:02.474Z,6.40
2023-05-05T03:16:02.479Z,6.50
2023-05-05T03:17:02.471Z,6.60
2023-05-05T03:18:02.479Z,6.40
2023-05-05T03:19:02.399Z,6.50
2023-05-05T03:20:04.354Z,6.30
2023-05-05T03:21:02.377Z,6.80
2023-05-05T03:22:05.132Z,6.60
2023-05-05T03:23:02.348Z,6.90
2023-05-05T03:24:02.329Z,7.00
2023-05-05T03:25:02.357Z,6.90
2023-05-05T03:26:02.346Z,7.00
2023-05-05T03:27:02.307Z,6.80
2023-05-05T03:28:02.277Z,6.60
2023-05-05T03:29:02.260Z,6.90
2023-05-05T03:30:02.284Z,6.50
2023-05-05T03:31:02.243Z,7.00
2023-05-05T03:32:02.281Z,6.90
2023-05-05T03:33:02.270Z,7.20
2023-05-05T03:34:02.241Z,7.00
2023-05-05T03:35:02.190Z,6.90
2023-05-05T03:36:02.195Z,6.50
2023-05-05T03:37:02.193Z,6.70
2023-05-05T03:38:02.147Z,7.00
2023-05-05T03:39:02.143Z,6.80
2023-05-05T03:40:02.123Z,6.70
2023-05-05T03:41:02.120Z,6.90
2023-05-05T03:42:02.090Z,6.50
2023-05-05T03:43:02.101Z,7.20
2023-05-05T03:44:02.099Z,6.90
2023-05-05T03:45:02.060Z,6.80
2023-05-05T03:46:02.059Z,6.70
2023-05-05T03:47:02.047Z,6.50
2023-05-05T03:48:02.101Z,7.00
2023-05-05T03:49:02.013Z,6.40
2023-05-05T03:50:01.993Z,6.90
2023-05-05T03:51:02.021Z,7.10
2023-05-05T03:52:01.962Z,6.50
2023-05-05T03:53:01.941Z,6.90
2023-05-05T03:54:02.002Z,6.80
2023-05-05T03:55:01.929Z,6.90
2023-05-05T03:56:01.930Z,6.80
2023-05-05T03:57:01.882Z,6.60
2023-05-05T03:58:01.912Z,6.90
2023-05-05T03:59:01.882Z,6.50
2023-05-05T04:00:01.858Z,7.10
2023-05-05T04:01:01.857Z,6.80
2023-05-05T04:02:01.835Z,6.80
2023-05-05T04:03:01.930Z,7.80
2023-05-05T04:04:01.842Z,6.90
2023-05-05T04:05:01.834Z,6.70
2023-05-05T04:06:01.756Z,6.40
2023-05-05T04:07:01.787Z,6.80
2023-05-05T04:08:01.740Z,7.40
2023-05-05T04:09:01.730Z,7.10
2023-05-05T04:10:01.713Z,7.80
2023-05-05T04:11:01.759Z,7.20
2023-05-05T04:12:01.728Z,7.50
2023-05-05T04:13:01.697Z,7.70
2023-05-05T04:14:01.661Z,7.50
2023-05-05T04:15:01.645Z,7.10
2023-05-05T04:16:01.731Z,6.80
2023-05-05T04:17:01.651Z,6.90
2023-05-05T04:18:01.612Z,7.30
2023-05-05T04:19:01.609Z,7.60
2023-05-05T04:20:01.655Z,7.40
2023-05-05T04:21:01.587Z,9.30
2023-05-05T04:22:01.557Z,8.00
2023-05-05T04:23:01.560Z,23.10
2023-05-05T04:24:01.552Z,42.90
2023-05-05T04:25:01.549Z,30.80
2023-05-05T04:26:01.518Z,35.40
2023-05-05T04:27:01.524Z,19.40
2023-05-05T04:28:01.494Z,16.40
2023-05-05T04:29:01.458Z,11.50
2023-05-05T04:30:01.450Z,9.10
2023-05-05T04:31:01.493Z,7.30
2023-05-05T04:32:01.441Z,8.40
2023-05-05T04:33:01.438Z,8.00
2023-05-05T04:34:01.400Z,7.40
2023-05-05T04:35:01.383Z,7.10
2023-05-05T04:36:01.373Z,7.30
2023-05-05T04:37:01.396Z,6.90
2023-05-05T04:38:01.332Z,7.50
2023-05-05T04:39:01.372Z,7.30
2023-05-05T04:40:01.318Z,7.80
2023-05-05T04:41:01.298Z,9.00
2023-05-05T04:42:01.318Z,7.40
2023-05-05T04:43:01.284Z,7.80
2023-05-05T04:44:01.262Z,7.30
2023-05-05T04:45:01.273Z,7.00
2023-05-05T04:46:01.272Z,7.30
2023-05-05T04:47:01.231Z,7.30
2023-05-05T04:48:01.319Z,6.80
2023-05-05T04:49:01.184Z,6.90
2023-05-05T04:50:01.208Z,6.60
2023-05-05T04:51:01.171Z,6.90
2023-05-05T04:52:01.164Z,6.90
2023-05-05T04:53:01.135Z,8.00
2023-05-05T04:54:01.142Z,7.90
2023-05-05T04:55:01.115Z,7.80
2023-05-05T04:56:01.152Z,7.70
2023-05-05T04:57:01.087Z,7.30
2023-05-05T04:58:01.094Z,8.30
2023-05-05T04:59:01.071Z,7.70
2023-05-05T05:00:01.078Z,8.30
2023-05-05T05:01:01.032Z,7.90
2023-05-05T05:02:01.080Z,8.10
2023-05-05T05:03:01.095Z,7.60
2023-05-05T05:04:01.033Z,8.00
2023-05-05T05:05:00.984Z,8.40
2023-05-05T05:06:00.988Z,7.80
2023-05-05T05:07:00.965Z,8.40
2023-05-05T05:08:00.975Z,7.70
2023-05-05T05:09:00.965Z,7.00
2023-05-05T05:10:00.967Z,7.70
2023-05-05T05:11:00.922Z,7.10
2023-05-05T05:12:00.891Z,6.90
2023-05-05T05:13:00.922Z,6.70
2023-05-05T05:14:00.858Z,6.80
2023-05-05T05:15:00.852Z,7.10
2023-05-05T05:16:00.858Z,6.80
2023-05-05T05:17:00.839Z,6.50
2023-05-05T05:18:00.844Z,6.50
2023-05-05T05:19:01.757Z,6.60
2023-05-05T05:20:00.772Z,6.70
2023-05-05T05:21:00.778Z,6.60
2023-05-05T05:22:00.770Z,6.70
2023-05-05T05:23:00.741Z,6.70
2023-05-05T05:24:00.745Z,6.60
2023-05-05T05:25:00.719Z,6.40
2023-05-05T05:26:00.694Z,5.90
2023-05-05T05:27:00.710Z,5.90
2023-05-05T05:28:09.441Z,5.90
2023-05-05T05:29:00.667Z,6.20
2023-05-05T05:30:00.653Z,5.00
2023-05-05T05:31:00.669Z,5.70
2023-05-05T05:32:00.640Z,5.80
2023-05-05T05:33:00.622Z,5.70
2023-05-05T05:34:00.594Z,4.80
2023-05-05T05:35:00.602Z,5.10
2023-05-05T05:36:00.583Z,5.10
2023-05-05T05:37:00.534Z,4.70
2023-05-05T05:38:00.549Z,5.10
2023-05-05T05:39:00.536Z,5.00
2023-05-05T05:40:00.594Z,5.30
2023-05-05T05:41:00.501Z,5.30
2023-05-05T05:42:00.473Z,5.20
2023-05-05T05:43:00.497Z,5.20
2023-05-05T05:44:00.481Z,5.30
2023-05-05T05:45:00.448Z,4.90
2023-05-05T05:46:00.452Z,4.80
2023-05-05T05:47:00.407Z,5.00
2023-05-05T05:48:00.443Z,5.20
2023-05-05T05:49:00.396Z,5.40
2023-05-05T05:50:00.369Z,5.00
2023-05-05T05:51:00.363Z,5.10
2023-05-05T05:52:00.334Z,4.80
2023-05-05T05:53:00.353Z,5.10
2023-05-05T05:54:00.347Z,5.00
2023-05-05T05:55:00.305Z,4.60
2023-05-05T05:56:00.296Z,4.50
2023-05-05T05:57:00.283Z,4.90
2023-05-05T05:58:00.289Z,5.50
2023-05-05T05:59:00.254Z,4.00
2023-05-05T06:00:01.995Z,4.00
2023-05-05T06:01:00.239Z,4.70
2023-05-05T06:02:00.323Z,4.40
2023-05-05T06:03:00.538Z,4.70
2023-05-05T06:04:00.293Z,4.80
2023-05-05T06:05:00.191Z,5.10
2023-05-05T06:06:00.190Z,4.30
2023-05-05T06:07:00.176Z,4.70
2023-05-05T06:08:00.135Z,4.30
2023-05-05T06:09:00.141Z,4.90
2023-05-05T06:10:04.817Z,4.70
2023-05-05T06:11:00.132Z,5.70
2023-05-05T06:12:00.066Z,4.50
2023-05-05T06:13:00.140Z,4.80
2023-05-05T06:14:00.196Z,5.70
2023-05-05T06:15:00.046Z,5.70
2023-05-05T06:16:00.072Z,5.20
2023-05-05T06:17:00.020Z,4.60
2023-05-05T06:18:00.062Z,4.20
2023-05-05T06:18:59.981Z,4.60
2023-05-05T06:19:59.977Z,4.70
2023-05-05T06:20:59.950Z,4.70
2023-05-05T06:22:00.039Z,4.40
2023-05-05T06:23:00.154Z,4.60
2023-05-05T06:23:59.916Z,4.30
2023-05-05T06:24:59.915Z,4.20
2023-05-05T06:26:00.033Z,4.20
2023-05-05T06:26:59.869Z,4.30
2023-05-05T06:27:59.889Z,4.30
2023-05-05T06:28:59.884Z,4.10
2023-05-05T06:29:59.834Z,4.10
2023-05-05T06:30:59.871Z,4.20
2023-05-05T06:31:59.819Z,4.20
2023-05-05T06:32:59.888Z,4.20
2023-05-05T06:33:59.819Z,4.10
2023-05-05T06:34:59.792Z,4.30
2023-05-05T06:35:59.762Z,4.20
2023-05-05T06:36:59.736Z,14.20
2023-05-05T06:37:59.732Z,7.40
2023-05-05T06:38:59.746Z,7.80
2023-05-05T06:39:59.699Z,6.70
2023-05-05T06:40:59.699Z,4.40
2023-05-05T06:41:59.678Z,4.60
2023-05-05T06:42:59.653Z,4.40
2023-05-05T06:43:59.634Z,4.40
2023-05-05T06:44:59.669Z,4.30
2023-05-05T06:45:59.621Z,4.20
2023-05-05T06:46:59.722Z,4.50
2023-05-05T06:47:59.591Z,4.00
2023-05-05T06:50:27.184Z,4.20
2023-05-05T06:50:32.531Z,4.50
2023-05-05T06:51:32.512Z,4.20
2023-05-05T06:52:32.511Z,4.30
2023-05-05T06:53:32.505Z,3.90
2023-05-05T06:54:32.519Z,3.70
2023-05-05T06:55:32.473Z,3.80
2023-05-05T06:56:32.443Z,4.10
2023-05-05T06:57:32.456Z,4.10
2023-05-05T06:58:32.432Z,4.10
2023-05-05T06:59:32.461Z,4.00
2023-05-05T07:00:32.481Z,3.90
2023-05-05T07:01:32.372Z,3.90
2023-05-05T07:02:32.413Z,5.20
2023-05-05T07:03:32.409Z,4.60
2023-05-05T07:04:32.356Z,4.30
2023-05-05T07:05:32.367Z,4.10
2023-05-05T07:06:32.393Z,4.20
2023-05-05T07:07:32.318Z,4.00
2023-05-05T07:08:32.305Z,4.30
2023-05-05T07:09:32.327Z,4.10
2023-05-05T07:10:32.265Z,3.90
2023-05-05T07:11:32.279Z,3.70
2023-05-05T07:12:32.281Z,3.80
2023-05-05T07:13:32.237Z,3.70
2023-05-05T07:14:32.245Z,4.20
2023-05-05T07:15:32.222Z,4.10
2023-05-05T07:16:32.216Z,3.90
2023-05-05T07:17:32.258Z,4.10
2023-05-05T07:18:32.160Z,3.80
2023-05-05T07:19:32.170Z,4.10
2023-05-05T07:20:32.171Z,3.90
2023-05-05T07:21:32.157Z,4.00
2023-05-05T07:22:32.105Z,4.10
2023-05-05T07:23:32.169Z,3.80
2023-05-05T07:24:32.076Z,4.00
2023-05-05T07:25:32.054Z,3.80
2023-05-05T07:26:32.073Z,4.10
2023-05-05T07:27:32.092Z,3.80
2023-05-05T07:28:32.102Z,3.90
2023-05-05T07:29:32.021Z,3.80
2023-05-05T07:30:31.996Z,3.90
2023-05-05T07:31:32.024Z,3.80
2023-05-05T07:32:32.046Z,3.60
2023-05-05T07:33:32.024Z,3.30
2023-05-05T07:34:31.950Z,3.40
2023-05-05T07:35:31.937Z,3.60
2023-05-05T07:36:31.923Z,3.80
2023-05-05T07:37:31.906Z,3.70
2023-05-05T07:38:31.919Z,3.30
2023-05-05T07:39:31.892Z,3.50
2023-05-05T07:40:31.890Z,3.40
2023-05-05T07:41:31.870Z,3.50
2023-05-05T07:42:31.865Z,3.20
2023-05-05T07:43:31.820Z,3.30
2023-05-05T07:44:31.841Z,3.20
2023-05-05T07:45:31.797Z,3.20
2023-05-05T07:46:31.824Z,3.10
2023-05-05T07:47:31.852Z,3.20
2023-05-05T07:48:31.748Z,3.10
2023-05-05T07:49:31.793Z,3.10
2023-05-05T07:51:59.649Z,3.40
2023-05-05T07:52:05.030Z,5.80
2023-05-05T07:53:13.727Z,4.50
2023-05-05T07:54:05.051Z,4.50
2023-05-05T07:55:04.989Z,3.30
2023-05-05T07:56:04.946Z,3.10
2023-05-05T07:57:04.929Z,3.20
2023-05-05T07:58:04.896Z,3.00
2023-05-05T07:59:04.926Z,3.10
2023-05-05T08:00:04.892Z,8.10
2023-05-05T08:01:04.885Z,4.40
2023-05-05T08:02:04.856Z,3.20
2023-05-05T08:03:04.908Z,3.20
2023-05-05T08:04:04.882Z,3.10
2023-05-05T08:05:05.067Z,2.90
2023-05-05T08:06:04.856Z,3.40
2023-05-05T08:07:04.788Z,3.20
2023-05-05T08:08:04.790Z,3.00
2023-05-05T08:09:04.786Z,3.10
2023-05-05T08:10:04.810Z,3.00
2023-05-05T08:11:04.735Z,3.00
2023-05-05T08:12:04.716Z,2.80
2023-05-05T08:13:04.771Z,3.00
2023-05-05T08:14:04.694Z,2.90
2023-05-05T08:15:04.736Z,2.90
2023-05-05T08:16:04.726Z,3.00
2023-05-05T08:17:04.651Z,2.80
2023-05-05T08:18:04.645Z,3.20
2023-05-05T08:19:09.743Z,2.90
2023-05-05T08:20:04.621Z,3.00
2023-05-05T08:21:04.625Z,2.90
2023-05-05T08:22:04.601Z,2.90
2023-05-05T08:23:04.574Z,2.90
2023-05-05T08:24:04.553Z,3.10
2023-05-05T08:25:04.553Z,3.10
2023-05-05T08:26:04.583Z,4.60
2023-05-05T08:27:04.533Z,3.00
2023-05-05T08:28:04.500Z,3.20
2023-05-05T08:29:04.499Z,4.00
2023-05-05T08:30:04.501Z,2.90
2023-05-05T08:31:04.574Z,3.10
2023-05-05T08:32:04.446Z,2.70
2023-05-05T08:33:04.501Z,2.90
2023-05-05T08:34:04.466Z,3.40
2023-05-05T08:35:04.419Z,2.80
2023-05-05T08:36:04.404Z,2.80
2023-05-05T08:37:04.420Z,4.00
2023-05-05T08:38:04.444Z,3.00
2023-05-05T08:39:04.356Z,5.80
2023-05-05T08:40:04.361Z,4.00
2023-05-05T08:41:04.361Z,3.00
2023-05-05T08:42:04.352Z,3.00
2023-05-05T08:43:04.311Z,3.10
2023-05-05T08:44:04.337Z,2.80
2023-05-05T08:45:04.311Z,2.90
2023-05-05T08:46:04.317Z,2.70
2023-05-05T08:47:04.375Z,3.10
2023-05-05T08:48:04.262Z,2.90
2023-05-05T08:49:04.265Z,3.00
2023-05-05T08:50:04.211Z,2.60
2023-05-05T08:51:05.520Z,2.90
2023-05-05T08:52:04.209Z,2.80
2023-05-05T08:53:04.262Z,3.10
2023-05-05T08:54:04.175Z,2.80
2023-05-05T08:55:04.150Z,2.90
2023-05-05T08:56:04.118Z,3.00
2023-05-05T08:57:04.139Z,3.10
2023-05-05T08:58:04.149Z,3.10
2023-05-05T08:59:04.091Z,2.60
2023-05-05T09:00:04.075Z,2.70
2023-05-05T09:01:04.133Z,2.60
2023-05-05T09:02:04.107Z,2.90
2023-05-05T09:03:04.352Z,2.90
2023-05-05T09:04:04.057Z,4.00
2023-05-05T09:05:04.002Z,3.00
2023-05-05T09:06:04.054Z,3.00
2023-05-05T09:07:04.060Z,3.60
2023-05-05T09:08:04.012Z,2.90
2023-05-05T09:09:03.936Z,2.80
2023-05-05T09:10:03.996Z,2.90
2023-05-05T09:11:03.995Z,2.80
2023-05-05T09:12:03.906Z,2.70
2023-05-05T09:13:03.986Z,2.90
2023-05-05T09:14:03.907Z,2.80
2023-05-05T09:15:03.869Z,2.80
2023-05-05T09:16:03.864Z,2.80
2023-05-05T09:17:03.871Z,2.70
2023-05-05T09:18:03.929Z,2.70
2023-05-05T09:19:03.855Z,3.40
2023-05-05T09:20:03.818Z,4.10
2023-05-05T09:21:03.798Z,3.20
2023-05-05T09:22:03.789Z,4.60
2023-05-05T09:23:03.800Z,3.80
2023-05-05T09:24:08.168Z,3.00
2023-05-05T09:25:03.744Z,3.20
2023-05-05T09:26:03.734Z,3.20
2023-05-05T09:27:03.760Z,3.40
2023-05-05T09:28:03.707Z,3.30
2023-05-05T09:29:03.684Z,2.90
2023-05-05T09:30:03.713Z,2.80
2023-05-05T09:31:03.762Z,2.70
2023-05-05T09:32:03.689Z,2.80
2023-05-05T09:33:03.710Z,2.90
2023-05-05T09:34:03.628Z,2.70
2023-05-05T09:35:03.663Z,3.80
2023-05-05T09:36:03.640Z,3.00
2023-05-05T09:37:03.596Z,3.20
2023-05-05T09:38:03.574Z,4.50
2023-05-05T09:39:03.601Z,4.30
2023-05-05T09:40:03.552Z,3.00
2023-05-05T09:41:03.536Z,2.80
2023-05-05T09:42:03.580Z,2.70
2023-05-05T09:43:03.527Z,2.60
2023-05-05T09:44:03.539Z,2.80
2023-05-05T09:45:03.519Z,2.60
2023-05-05T09:46:03.473Z,3.00
2023-05-05T09:47:07.211Z,2.80
2023-05-05T09:48:03.500Z,2.60
2023-05-05T09:49:03.432Z,3.00
2023-05-05T09:50:03.450Z,2.60
2023-05-05T09:51:03.394Z,3.10
2023-05-05T09:52:03.409Z,2.90
2023-05-05T09:53:03.403Z,2.90
2023-05-05T09:54:03.384Z,2.80
2023-05-05T09:55:03.391Z,2.90
2023-05-05T09:56:03.359Z,2.70
2023-05-05T09:57:03.440Z,2.80
2023-05-05T09:58:03.355Z,2.50
2023-05-05T09:59:03.281Z,2.60
2023-05-05T10:00:03.312Z,2.40
2023-05-05T10:01:03.257Z,2.50
2023-05-05T10:02:03.281Z,2.50
2023-05-05T10:03:03.411Z,2.90
2023-05-05T10:04:03.218Z,2.50
2023-05-05T10:05:03.239Z,2.90
2023-05-05T10:06:03.194Z,3.10
2023-05-05T10:07:03.187Z,2.70
2023-05-05T10:08:03.188Z,2.70
2023-05-05T10:09:03.166Z,4.00
2023-05-05T10:10:03.145Z,3.90
2023-05-05T10:11:03.121Z,2.70
2023-05-05T10:12:03.163Z,2.90
2023-05-05T10:13:03.150Z,2.90
2023-05-05T10:14:03.082Z,2.80
2023-05-05T10:15:03.117Z,2.80
2023-05-05T10:16:03.071Z,3.00
2023-05-05T10:17:03.049Z,2.90
2023-05-05T10:18:07.676Z,2.40
2023-05-05T10:19:03.017Z,2.70
2023-05-05T10:20:03.032Z,2.80
2023-05-05T10:21:03.019Z,2.70
2023-05-05T10:22:03.032Z,2.80
2023-05-05T10:23:02.969Z,2.60
2023-05-05T10:24:02.958Z,2.70
2023-05-05T10:25:02.946Z,2.60
2023-05-05T10:26:02.961Z,2.70
2023-05-05T10:27:02.945Z,2.70
2023-05-05T10:28:02.911Z,2.70
2023-05-05T10:29:02.923Z,2.70
2023-05-05T10:30:02.901Z,2.50
2023-05-05T10:31:07.663Z,2.80
2023-05-05T10:32:10.281Z,2.80
2023-05-05T10:33:22.211Z,2.70
2023-05-05T10:34:03.031Z,2.50
2023-05-05T10:35:02.820Z,2.50
2023-05-05T10:36:02.828Z,2.70
2023-05-05T10:37:02.806Z,2.50
2023-05-05T10:38:02.855Z,2.60
2023-05-05T10:39:02.796Z,2.60
2023-05-05T10:40:02.784Z,2.40
2023-05-05T10:41:02.741Z,2.60
2023-05-05T10:42:02.775Z,2.60
2023-05-05T10:43:02.744Z,2.50
2023-05-05T10:44:04.430Z,2.40
2023-05-05T10:45:02.702Z,2.60
2023-05-05T10:46:02.734Z,2.40
2023-05-05T10:47:02.659Z,2.40
2023-05-05T10:48:02.717Z,2.40
2023-05-05T10:49:02.641Z,2.70
2023-05-05T10:50:02.627Z,2.60
2023-05-05T10:51:02.727Z,2.40
2023-05-05T10:52:02.618Z,2.30
2023-05-05T10:53:02.691Z,2.20
2023-05-05T10:54:02.595Z,2.30
2023-05-05T10:55:02.566Z,2.30
2023-05-05T10:56:02.572Z,2.20
2023-05-05T10:57:02.566Z,2.50
2023-05-05T10:58:02.516Z,2.30
2023-05-05T10:59:02.520Z,2.20
2023-05-05T11:00:02.500Z,2.30
2023-05-05T11:01:02.628Z,2.20
2023-05-05T11:02:02.480Z,2.20
2023-05-05T11:03:02.508Z,2.30
2023-05-05T11:04:02.512Z,2.30
2023-05-05T11:05:02.481Z,2.50
2023-05-05T11:06:02.415Z,2.20
2023-05-05T11:07:02.394Z,2.50
2023-05-05T11:08:02.483Z,2.50
2023-05-05T11:09:02.369Z,2.50
2023-05-05T11:10:02.382Z,2.50
2023-05-05T11:11:02.380Z,2.80
2023-05-05T11:12:02.363Z,2.20
2023-05-05T11:13:02.441Z,4.00
2023-05-05T11:14:02.324Z,3.80
2023-05-05T11:15:02.301Z,2.70
2023-05-05T11:16:02.285Z,3.00
2023-05-05T11:17:02.419Z,2.70
2023-05-05T11:18:05.880Z,2.20
2023-05-05T11:19:02.269Z,2.40
2023-05-05T11:20:02.238Z,2.30
2023-05-05T11:21:02.206Z,2.30
2023-05-05T11:22:02.198Z,2.40
2023-05-05T11:23:02.270Z,2.50
2023-05-05T11:24:02.181Z,2.70
2023-05-05T11:25:02.173Z,2.50
2023-05-05T11:26:02.170Z,2.10
2023-05-05T11:27:02.131Z,2.30
2023-05-05T11:28:02.156Z,2.50
2023-05-05T11:29:02.120Z,2.10
2023-05-05T11:30:02.099Z,2.40
2023-05-05T11:31:02.148Z,2.20
2023-05-05T11:32:02.090Z,2.30
2023-05-05T11:33:02.079Z,2.50
2023-05-05T11:34:02.054Z,2.40
2023-05-05T11:35:02.028Z,2.40
2023-05-05T11:36:05.082Z,2.40
2023-05-05T11:37:02.041Z,2.90
2023-05-05T11:38:01.992Z,2.40
2023-05-05T11:39:02.019Z,2.80
2023-05-05T11:40:02.027Z,2.70
2023-05-05T11:41:01.945Z,2.40
2023-05-05T11:42:06.598Z,2.60
2023-05-05T11:43:01.944Z,2.40
2023-05-05T11:44:01.939Z,2.20
2023-05-05T11:45:01.909Z,2.20
2023-05-05T11:46:01.899Z,2.40
2023-05-05T11:47:04.720Z,2.30
2023-05-05T11:48:01.884Z,2.30
2023-05-05T11:49:01.846Z,2.40
2023-05-05T11:50:01.854Z,2.30
2023-05-05T11:51:01.813Z,2.00
2023-05-05T11:52:01.848Z,2.20
2023-05-05T11:53:01.795Z,2.10
2023-05-05T11:54:01.775Z,1.90
2023-05-05T11:55:01.829Z,2.10
2023-05-05T11:56:01.742Z,2.10
2023-05-05T11:57:01.784Z,2.10
2023-05-05T11:59:29.221Z,2.10
2023-05-05T11:59:34.574Z,2.30
2023-05-05T12:00:34.616Z,2.50
2023-05-05T12:01:34.571Z,2.20
2023-05-05T12:02:34.636Z,2.40
2023-05-05T12:03:34.667Z,2.40
2023-05-05T12:04:34.520Z,2.10
2023-05-05T12:05:36.671Z,2.10
2023-05-05T12:06:34.540Z,2.10
2023-05-05T12:07:34.468Z,2.30
2023-05-05T12:08:34.456Z,2.10
2023-05-05T12:09:34.456Z,2.10
2023-05-05T12:10:34.430Z,2.10
2023-05-05T12:11:34.434Z,2.10
2023-05-05T12:12:34.429Z,2.20
2023-05-05T12:13:34.488Z,2.40
2023-05-05T12:14:34.386Z,2.00
2023-05-05T12:15:34.366Z,2.20
2023-05-05T12:16:34.382Z,2.10
2023-05-05T12:17:34.366Z,2.30
2023-05-05T12:18:34.350Z,2.30
2023-05-05T12:19:34.321Z,2.10
2023-05-05T12:20:34.330Z,2.00
2023-05-05T12:21:34.301Z,2.10
2023-05-05T12:22:34.353Z,3.00
2023-05-05T12:23:34.311Z,2.40
2023-05-05T12:24:34.239Z,3.00
2023-05-05T12:25:34.245Z,2.40
2023-05-05T12:26:34.224Z,3.50
2023-05-05T12:27:34.203Z,4.40
2023-05-05T12:28:34.226Z,2.90
2023-05-05T12:29:34.179Z,3.30
2023-05-05T12:30:34.195Z,2.60
2023-05-05T12:31:34.188Z,2.30
2023-05-05T12:32:34.135Z,4.80
2023-05-05T12:33:34.147Z,3.00
2023-05-05T12:34:34.207Z,5.60
2023-05-05T12:35:34.109Z,2.50
2023-05-05T12:36:34.090Z,2.30
2023-05-05T12:37:34.090Z,2.40
2023-05-05T12:38:34.096Z,2.30
2023-05-05T12:39:34.069Z,2.20
2023-05-05T12:40:34.027Z,2.30
2023-05-05T12:41:34.016Z,2.40
2023-05-05T12:42:34.016Z,2.30
2023-05-05T12:43:39.369Z,2.40
2023-05-05T12:44:34.013Z,2.40
2023-05-05T12:45:33.970Z,2.20
2023-05-05T12:46:34.043Z,2.30
2023-05-05T12:47:34.008Z,2.20
2023-05-05T12:50:51.429Z,3.20
2023-05-05T12:51:52.433Z,3.40
2023-05-05T12:52:52.382Z,2.50
2023-05-05T12:53:52.394Z,7.10
2023-05-05T12:54:54.644Z,2.70
2023-05-05T12:55:52.356Z,2.60
2023-05-05T12:56:52.361Z,2.40
2023-05-05T12:57:52.356Z,2.40
2023-05-05T12:58:52.323Z,2.60
2023-05-05T12:59:52.297Z,2.60
2023-05-05T13:00:54.554Z,2.60
2023-05-05T13:01:52.390Z,2.40
2023-05-05T13:02:52.354Z,2.40
2023-05-05T13:03:52.294Z,2.40
2023-05-05T13:04:52.265Z,2.30
2023-05-05T13:05:52.232Z,2.40
2023-05-05T13:06:54.496Z,2.40
2023-05-05T13:07:52.264Z,2.50
2023-05-05T13:08:52.198Z,2.30
2023-05-05T13:09:52.204Z,2.30
2023-05-05T13:10:52.237Z,2.40
2023-05-05T13:11:52.138Z,2.20
2023-05-05T13:12:52.187Z,2.60
2023-05-05T13:13:52.134Z,2.40
2023-05-05T13:14:52.159Z,2.60
2023-05-05T13:15:52.183Z,2.50
2023-05-05T13:16:52.135Z,2.80
2023-05-05T13:17:52.125Z,2.60
2023-05-05T13:19:23.243Z,2.30
2023-05-05T13:19:52.042Z,2.30
2023-05-05T13:20:52.035Z,2.40
2023-05-05T13:21:52.040Z,3.20